sensor_id;sensor_type;location;lat;lon;timestamp;temperature;humidity
54516;DHT22;40422;45.892;4.738;2023-12-20T04:01:00;4.50;99.90
54516;DHT22;40422;45.892;4.738;2023-12-20T04:03:26;4.50;99.90
54516;DHT22;40422;45.892;4.738;2023-12-20T04:05:52;4.50;99.90
54516;DHT22;40422;45.892;4.738;2023-12-20T04:08:18;4.50;99.90
54516;DHT22;40422;45.892;4.738;2023-12-20T04:10:43;4.50;99.90
54516;DHT22;40422;45.892;4.738;2023-12-20T04:13:09;4.50;99.90
54516;DHT22;40422;45.892;4.738;2023-12-20T04:15:34;4.50;99.90
54516;DHT22;40422;45.892;4.738;2023-12-20T04:18:00;4.50;99.90
54516;DHT22;40422;45.892;4.738;2023-12-20T04:20:25;4.50;99.90
54516;DHT22;40422;45.892;4.738;2023-12-20T04:22:51;4.50;99.90
54516;DHT22;40422;45.892;4.738;2023-12-20T04:25:17;4.50;99.90
54516;DHT22;40422;45.892;4.738;2023-12-20T04:27:42;4.50;99.90
54516;DHT22;40422;45.892;4.738;2023-12-20T04:30:08;4.60;99.90
54516;DHT22;40422;45.892;4.738;2023-12-20T04:32:34;4.50;99.90
54516;DHT22;40422;45.892;4.738;2023-12-20T04:35:00;4.60;99.90
54516;DHT22;40422;45.892;4.738;2023-12-20T04:37:25;4.60;99.90
54516;DHT22;40422;45.892;4.738;2023-12-20T04:39:51;4.60;99.90
54516;DHT22;40422;45.892;4.738;2023-12-20T04:42:16;4.70;99.90
54516;DHT22;40422;45.892;4.738;2023-12-20T04:44:42;4.70;99.90
54516;DHT22;40422;45.892;4.738;2023-12-20T04:47:09;4.70;99.90
54516;DHT22;40422;45.892;4.738;2023-12-20T04:49:34;4.70;99.90
54516;DHT22;40422;45.892;4.738;2023-12-20T04:52:00;4.70;99.90
54516;DHT22;40422;45.892;4.738;2023-12-20T04:54:26;4.60;99.90
54516;DHT22;40422;45.892;4.738;2023-12-20T04:56:51;4.60;99.90
54516;DHT22;40422;45.892;4.738;2023-12-20T04:59:17;4.70;99.90
54516;DHT22;40422;45.892;4.738;2023-12-20T05:01:42;4.70;99.90
54516;DHT22;40422;45.892;4.738;2023-12-20T05:04:08;4.70;99.90
54516;DHT22;40422;45.892;4.738;2023-12-20T05:06:34;4.70;99.90
54516;DHT22;40422;45.892;4.738;2023-12-20T05:08:59;4.80;99.90
54516;DHT22;40422;45.892;4.738;2023-12-20T05:11:25;4.80;99.90
54516;DHT22;40422;45.892;4.738;2023-12-20T05:13:50;4.80;99.90
54516;DHT22;40422;45.892;4.738;2023-12-20T05:16:16;4.80;99.90
54516;DHT22;40422;45.892;4.738;2023-12-20T05:18:44;4.90;99.90
54516;DHT22;40422;45.892;4.738;2023-12-20T05:21:10;4.90;99.90
54516;DHT22;40422;45.892;4.738;2023-12-20T05:23:35;4.80;99.90
54516;DHT22;40422;45.892;4.738;2023-12-20T05:26:01;4.80;99.90
54516;DHT22;40422;45.892;4.738;2023-12-20T05:28:27;4.70;99.90
54516;DHT22;40422;45.892;4.738;2023-12-20T05:30:52;4.70;99.90
54516;DHT22;40422;45.892;4.738;2023-12-20T05:33:18;4.60;99.90
54516;DHT22;40422;45.892;4.738;2023-12-20T05:35:44;4.60;99.90
54516;DHT22;40422;45.892;4.738;2023-12-20T05:38:09;4.60;99.90
54516;DHT22;40422;45.892;4.738;2023-12-20T05:40:35;4.60;99.90
54516;DHT22;40422;45.892;4.738;2023-12-20T05:43:00;4.50;99.90
54516;DHT22;40422;45.892;4.738;2023-12-20T05:45:26;4.50;99.90
54516;DHT22;40422;45.892;4.738;2023-12-20T05:47:52;4.60;99.90
54516;DHT22;40422;45.892;4.738;2023-12-20T05:50:17;4.60;99.90
54516;DHT22;40422;45.892;4.738;2023-12-20T05:52:43;4.70;99.90
54516;DHT22;40422;45.892;4.738;2023-12-20T05:55:08;4.70;99.90
54516;DHT22;40422;45.892;4.738;2023-12-20T05:57:35;4.70;99.90
54516;DHT22;40422;45.892;4.738;2023-12-20T06:00:00;4.80;99.90
54516;DHT22;40422;45.892;4.738;2023-12-20T06:02:26;4.70;99.90
54516;DHT22;40422;45.892;4.738;2023-12-20T06:04:51;4.70;99.90
54516;DHT22;40422;45.892;4.738;2023-12-20T06:07:17;4.70;99.90
54516;DHT22;40422;45.892;4.738;2023-12-20T06:09:43;4.70;99.90
54516;DHT22;40422;45.892;4.738;2023-12-20T06:12:08;4.70;99.90
54516;DHT22;40422;45.892;4.738;2023-12-20T06:14:34;4.70;99.90
54516;DHT22;40422;45.892;4.738;2023-12-20T06:17:00;4.70;99.90
54516;DHT22;40422;45.892;4.738;2023-12-20T06:19:27;4.70;99.90
54516;DHT22;40422;45.892;4.738;2023-12-20T06:21:52;4.70;99.90
54516;DHT22;40422;45.892;4.738;2023-12-20T06:24:18;4.70;99.90
54516;DHT22;40422;45.892;4.738;2023-12-20T06:26:44;4.70;99.90
54516;DHT22;40422;45.892;4.738;2023-12-20T06:29:10;4.70;99.90
54516;DHT22;40422;45.892;4.738;2023-12-20T06:31:35;4.70;99.90
54516;DHT22;40422;45.892;4.738;2023-12-20T06:34:01;4.70;99.90
54516;DHT22;40422;45.892;4.738;2023-12-20T06:36:27;4.70;99.90
54516;DHT22;40422;45.892;4.738;2023-12-20T06:38:52;4.70;99.90
54516;DHT22;40422;45.892;4.738;2023-12-20T06:41:18;4.70;99.90
54516;DHT22;40422;45.892;4.738;2023-12-20T06:43:44;4.70;99.90
54516;DHT22;40422;45.892;4.738;2023-12-20T06:46:09;4.70;99.90
54516;DHT22;40422;45.892;4.738;2023-12-20T06:48:35;4.70;99.90
54516;DHT22;40422;45.892;4.738;2023-12-20T06:51:01;4.70;99.90
54516;DHT22;40422;45.892;4.738;2023-12-20T06:53:29;4.70;99.90
54516;DHT22;40422;45.892;4.738;2023-12-20T06:55:55;4.70;99.90
54516;DHT22;40422;45.892;4.738;2023-12-20T06:58:22;4.70;99.90
54516;DHT22;40422;45.892;4.738;2023-12-20T07:00:47;4.70;99.90
54516;DHT22;40422;45.892;4.738;2023-12-20T07:03:13;4.70;99.90
54516;DHT22;40422;45.892;4.738;2023-12-20T07:05:39;4.70;99.90
54516;DHT22;40422;45.892;4.738;2023-12-20T07:08:05;4.80;99.90
54516;DHT22;40422;45.892;4.738;2023-12-20T07:10:30;4.90;99.90
54516;DHT22;40422;45.892;4.738;2023-12-20T07:12:56;5.00;99.90
54516;DHT22;40422;45.892;4.738;2023-12-20T07:15:22;5.10;99.90
54516;DHT22;40422;45.892;4.738;2023-12-20T07:17:48;5.20;99.90
54516;DHT22;40422;45.892;4.738;2023-12-20T07:20:14;5.30;99.90
54516;DHT22;40422;45.892;4.738;2023-12-20T07:22:39;5.40;99.90
54516;DHT22;40422;45.892;4.738;2023-12-20T07:25:05;5.60;99.90
54516;DHT22;40422;45.892;4.738;2023-12-20T07:27:33;5.80;99.90
54516;DHT22;40422;45.892;4.738;2023-12-20T07:29:59;5.80;99.90
54516;DHT22;40422;45.892;4.738;2023-12-20T07:32:24;5.90;99.90
54516;DHT22;40422;45.892;4.738;2023-12-20T07:34:50;6.00;99.90
54516;DHT22;40422;45.892;4.738;2023-12-20T07:37:16;6.10;99.90
54516;DHT22;40422;45.892;4.738;2023-12-20T07:39:41;6.10;99.90
54516;DHT22;40422;45.892;4.738;2023-12-20T07:42:08;6.20;99.90
54516;DHT22;40422;45.892;4.738;2023-12-20T07:44:34;6.20;99.90
54516;DHT22;40422;45.892;4.738;2023-12-20T07:47:01;6.20;99.90
54516;DHT22;40422;45.892;4.738;2023-12-20T07:49:28;6.20;99.90
54516;DHT22;40422;45.892;4.738;2023-12-20T07:51:54;6.10;99.90
54516;DHT22;40422;45.892;4.738;2023-12-20T07:54:19;6.10;99.90
54516;DHT22;40422;45.892;4.738;2023-12-20T07:56:46;6.10;99.90
54516;DHT22;40422;45.892;4.738;2023-12-20T07:59:12;5.90;99.90
54516;DHT22;40422;45.892;4.738;2023-12-20T08:01:38;5.90;99.90
54516;DHT22;40422;45.892;4.738;2023-12-20T08:04:04;5.90;99.90
54516;DHT22;40422;45.892;4.738;2023-12-20T08:06:29;5.90;99.90
54516;DHT22;40422;45.892;4.738;2023-12-20T08:08:55;5.90;99.90
54516;DHT22;40422;45.892;4.738;2023-12-20T08:11:20;6.10;99.90
54516;DHT22;40422;45.892;4.738;2023-12-20T08:13:46;6.20;99.90
54516;DHT22;40422;45.892;4.738;2023-12-20T08:16:11;6.30;99.90
54516;DHT22;40422;45.892;4.738;2023-12-20T08:18:39;6.20;99.90
54516;DHT22;40422;45.892;4.738;2023-12-20T08:21:05;6.30;99.90
54516;DHT22;40422;45.892;4.738;2023-12-20T08:23:33;6.50;99.90
54516;DHT22;40422;45.892;4.738;2023-12-20T08:25:58;6.60;99.90
54516;DHT22;40422;45.892;4.738;2023-12-20T08:28:24;6.70;99.90
54516;DHT22;40422;45.892;4.738;2023-12-20T08:30:50;6.80;99.90
54516;DHT22;40422;45.892;4.738;2023-12-20T08:33:19;6.90;99.90
54516;DHT22;40422;45.892;4.738;2023-12-20T08:35:44;7.00;99.90
54516;DHT22;40422;45.892;4.738;2023-12-20T08:38:10;7.00;99.90
54516;DHT22;40422;45.892;4.738;2023-12-20T08:40:36;7.00;99.90
54516;DHT22;40422;45.892;4.738;2023-12-20T08:43:01;7.00;99.90
54516;DHT22;40422;45.892;4.738;2023-12-20T08:45:27;7.10;99.90
54516;DHT22;40422;45.892;4.738;2023-12-20T08:47:53;7.10;99.90
54516;DHT22;40422;45.892;4.738;2023-12-20T08:50:19;7.10;99.90
54516;DHT22;40422;45.892;4.738;2023-12-20T08:52:44;7.10;99.90
54516;DHT22;40422;45.892;4.738;2023-12-20T08:55:10;7.00;99.90
54516;DHT22;40422;45.892;4.738;2023-12-20T08:57:36;7.00;99.90
54516;DHT22;40422;45.892;4.738;2023-12-20T09:00:02;7.00;99.90
54516;DHT22;40422;45.892;4.738;2023-12-20T09:02:29;7.10;99.90
54516;DHT22;40422;45.892;4.738;2023-12-20T09:04:55;7.10;99.90
54516;DHT22;40422;45.892;4.738;2023-12-20T09:07:27;7.30;99.90
54516;DHT22;40422;45.892;4.738;2023-12-20T09:09:56;7.30;99.90
54516;DHT22;40422;45.892;4.738;2023-12-20T09:12:22;7.50;99.90
54516;DHT22;40422;45.892;4.738;2023-12-20T09:14:49;7.50;99.90
54516;DHT22;40422;45.892;4.738;2023-12-20T09:17:16;7.50;99.90
54516;DHT22;40422;45.892;4.738;2023-12-20T09:19:42;7.50;99.90
54516;DHT22;40422;45.892;4.738;2023-12-20T09:22:12;7.40;99.90
54516;DHT22;40422;45.892;4.738;2023-12-20T09:24:38;7.40;99.90
54516;DHT22;40422;45.892;4.738;2023-12-20T09:27:07;7.40;99.90
54516;DHT22;40422;45.892;4.738;2023-12-20T09:29:33;7.40;99.90
54516;DHT22;40422;45.892;4.738;2023-12-20T09:31:58;7.30;99.90
54516;DHT22;40422;45.892;4.738;2023-12-20T09:34:25;7.40;99.90
54516;DHT22;40422;45.892;4.738;2023-12-20T09:36:51;7.40;99.90
54516;DHT22;40422;45.892;4.738;2023-12-20T09:39:18;7.60;99.90
54516;DHT22;40422;45.892;4.738;2023-12-20T09:42:00;7.70;99.90
54516;DHT22;40422;45.892;4.738;2023-12-20T09:44:26;7.80;99.90
54516;DHT22;40422;45.892;4.738;2023-12-20T09:46:52;7.90;99.90
54516;DHT22;40422;45.892;4.738;2023-12-20T09:49:20;8.00;99.90
54516;DHT22;40422;45.892;4.738;2023-12-20T09:51:46;8.10;99.90
54516;DHT22;40422;45.892;4.738;2023-12-20T09:54:14;8.20;99.90
54516;DHT22;40422;45.892;4.738;2023-12-20T09:56:41;8.20;99.90
54516;DHT22;40422;45.892;4.738;2023-12-20T09:59:06;8.30;99.90
54516;DHT22;40422;45.892;4.738;2023-12-20T10:01:34;8.40;99.90
54516;DHT22;40422;45.892;4.738;2023-12-20T10:04:00;8.40;99.90
54516;DHT22;40422;45.892;4.738;2023-12-20T10:06:26;8.40;99.90
54516;DHT22;40422;45.892;4.738;2023-12-20T10:08:52;8.40;99.90
54516;DHT22;40422;45.892;4.738;2023-12-20T10:11:18;8.40;99.90
54516;DHT22;40422;45.892;4.738;2023-12-20T10:13:47;8.40;99.90
54516;DHT22;40422;45.892;4.738;2023-12-20T10:16:13;8.40;99.90
54516;DHT22;40422;45.892;4.738;2023-12-20T10:18:39;8.40;99.90
54516;DHT22;40422;45.892;4.738;2023-12-20T10:21:06;8.50;99.90
54516;DHT22;40422;45.892;4.738;2023-12-20T10:23:32;8.50;99.90
54516;DHT22;40422;45.892;4.738;2023-12-20T10:25:58;8.50;99.90
54516;DHT22;40422;45.892;4.738;2023-12-20T10:28:24;8.50;99.90
54516;DHT22;40422;45.892;4.738;2023-12-20T10:30:53;8.50;99.90
54516;DHT22;40422;45.892;4.738;2023-12-20T10:33:26;8.50;99.90
54516;DHT22;40422;45.892;4.738;2023-12-20T10:35:52;8.60;99.90
54516;DHT22;40422;45.892;4.738;2023-12-20T10:38:19;8.60;99.90
54516;DHT22;40422;45.892;4.738;2023-12-20T10:40:48;8.70;99.90
54516;DHT22;40422;45.892;4.738;2023-12-20T10:43:15;8.70;99.90
54516;DHT22;40422;45.892;4.738;2023-12-20T10:45:41;8.80;99.90
54516;DHT22;40422;45.892;4.738;2023-12-20T10:48:07;8.80;99.90
54516;DHT22;40422;45.892;4.738;2023-12-20T10:50:36;8.90;99.90
54516;DHT22;40422;45.892;4.738;2023-12-20T10:53:04;8.90;99.90
54516;DHT22;40422;45.892;4.738;2023-12-20T10:55:29;8.90;99.90
54516;DHT22;40422;45.892;4.738;2023-12-20T10:58:00;8.80;99.90
54516;DHT22;40422;45.892;4.738;2023-12-20T11:00:31;8.90;99.90
54516;DHT22;40422;45.892;4.738;2023-12-20T11:03:00;8.80;99.90
54516;DHT22;40422;45.892;4.738;2023-12-20T11:08:28;8.60;99.90
54516;DHT22;40422;45.892;4.738;2023-12-20T11:11:23;8.60;99.90
54516;DHT22;40422;45.892;4.738;2023-12-20T11:14:02;8.50;99.90
54516;DHT22;40422;45.892;4.738;2023-12-20T11:16:29;8.40;99.90
54516;DHT22;40422;45.892;4.738;2023-12-20T11:18:56;8.40;99.90
54516;DHT22;40422;45.892;4.738;2023-12-20T11:21:22;8.40;99.90
54516;DHT22;40422;45.892;4.738;2023-12-20T11:23:48;8.40;99.90
54516;DHT22;40422;45.892;4.738;2023-12-20T11:26:16;8.40;99.90
54516;DHT22;40422;45.892;4.738;2023-12-20T11:28:42;8.40;99.90
54516;DHT22;40422;45.892;4.738;2023-12-20T11:31:08;8.40;99.90
54516;DHT22;40422;45.892;4.738;2023-12-20T11:33:37;8.50;99.90
54516;DHT22;40422;45.892;4.738;2023-12-20T11:36:06;8.50;99.90
54516;DHT22;40422;45.892;4.738;2023-12-20T11:38:38;8.40;99.90
54516;DHT22;40422;45.892;4.738;2023-12-20T11:41:05;8.40;99.90
54516;DHT22;40422;45.892;4.738;2023-12-20T11:43:34;8.50;99.90
54516;DHT22;40422;45.892;4.738;2023-12-20T11:46:07;8.50;99.90
54516;DHT22;40422;45.892;4.738;2023-12-20T11:48:35;8.40;99.90
54516;DHT22;40422;45.892;4.738;2023-12-20T11:51:01;8.50;99.90
54516;DHT22;40422;45.892;4.738;2023-12-20T11:53:29;8.60;99.90
54516;DHT22;40422;45.892;4.738;2023-12-20T11:55:56;8.60;99.90
54516;DHT22;40422;45.892;4.738;2023-12-20T11:58:21;8.70;99.90
54516;DHT22;40422;45.892;4.738;2023-12-20T12:00:49;8.80;99.90
54516;DHT22;40422;45.892;4.738;2023-12-20T12:03:15;8.80;99.90
54516;DHT22;40422;45.892;4.738;2023-12-20T12:05:41;8.80;99.90
54516;DHT22;40422;45.892;4.738;2023-12-20T12:08:07;8.70;99.90
54516;DHT22;40422;45.892;4.738;2023-12-20T12:10:33;8.60;99.90
54516;DHT22;40422;45.892;4.738;2023-12-20T12:12:59;8.60;99.90
54516;DHT22;40422;45.892;4.738;2023-12-20T12:15:26;8.50;99.90
54516;DHT22;40422;45.892;4.738;2023-12-20T12:17:56;8.40;99.90
54516;DHT22;40422;45.892;4.738;2023-12-20T12:20:22;8.40;99.90
54516;DHT22;40422;45.892;4.738;2023-12-20T12:22:59;8.50;99.90
54516;DHT22;40422;45.892;4.738;2023-12-20T12:25:26;8.50;99.90
54516;DHT22;40422;45.892;4.738;2023-12-20T12:27:52;8.50;99.90
54516;DHT22;40422;45.892;4.738;2023-12-20T12:30:18;8.50;99.90
54516;DHT22;40422;45.892;4.738;2023-12-20T12:32:47;8.50;99.90
54516;DHT22;40422;45.892;4.738;2023-12-20T12:35:14;8.50;99.90
54516;DHT22;40422;45.892;4.738;2023-12-20T12:37:41;8.50;99.90
54516;DHT22;40422;45.892;4.738;2023-12-20T12:40:10;8.50;99.90
54516;DHT22;40422;45.892;4.738;2023-12-20T12:42:44;8.50;99.90
54516;DHT22;40422;45.892;4.738;2023-12-20T12:45:10;8.60;99.90
54516;DHT22;40422;45.892;4.738;2023-12-20T12:47:39;8.60;99.90
54516;DHT22;40422;45.892;4.738;2023-12-20T12:50:05;8.60;99.90
54516;DHT22;40422;45.892;4.738;2023-12-20T12:52:31;8.60;99.90
54516;DHT22;40422;45.892;4.738;2023-12-20T12:54:56;8.70;99.90
54516;DHT22;40422;45.892;4.738;2023-12-20T12:57:22;8.70;99.90
54516;DHT22;40422;45.892;4.738;2023-12-20T12:59:47;8.70;99.90
54516;DHT22;40422;45.892;4.738;2023-12-20T13:02:14;8.80;99.90
54516;DHT22;40422;45.892;4.738;2023-12-20T13:04:41;8.80;99.90
54516;DHT22;40422;45.892;4.738;2023-12-20T13:07:07;8.80;99.90
54516;DHT22;40422;45.892;4.738;2023-12-20T13:09:33;8.80;99.90
54516;DHT22;40422;45.892;4.738;2023-12-20T13:11:59;8.70;99.90
54516;DHT22;40422;45.892;4.738;2023-12-20T13:14:26;8.70;99.90
54516;DHT22;40422;45.892;4.738;2023-12-20T13:16:52;8.70;99.90
54516;DHT22;40422;45.892;4.738;2023-12-20T13:19:17;8.60;99.90
54516;DHT22;40422;45.892;4.738;2023-12-20T13:21:43;8.50;99.90
54516;DHT22;40422;45.892;4.738;2023-12-20T13:24:09;8.50;99.90
54516;DHT22;40422;45.892;4.738;2023-12-20T13:26:34;8.40;99.90
54516;DHT22;40422;45.892;4.738;2023-12-20T13:29:00;8.40;99.90
54516;DHT22;40422;45.892;4.738;2023-12-20T13:31:25;8.40;99.90
54516;DHT22;40422;45.892;4.738;2023-12-20T13:33:51;8.40;99.90
54516;DHT22;40422;45.892;4.738;2023-12-20T13:36:18;8.50;99.90
54516;DHT22;40422;45.892;4.738;2023-12-20T13:38:43;8.50;99.90
54516;DHT22;40422;45.892;4.738;2023-12-20T13:41:09;8.60;99.90
54516;DHT22;40422;45.892;4.738;2023-12-20T13:43:35;8.60;99.90
54516;DHT22;40422;45.892;4.738;2023-12-20T13:46:00;8.70;99.90
54516;DHT22;40422;45.892;4.738;2023-12-20T13:48:26;8.80;99.90
54516;DHT22;40422;45.892;4.738;2023-12-20T13:50:52;8.80;99.90
54516;DHT22;40422;45.892;4.738;2023-12-20T13:53:17;9.00;99.90
54516;DHT22;40422;45.892;4.738;2023-12-20T13:55:44;9.10;99.90
54516;DHT22;40422;45.892;4.738;2023-12-20T13:58:10;9.40;99.90
54516;DHT22;40422;45.892;4.738;2023-12-20T14:00:36;9.40;99.90
54516;DHT22;40422;45.892;4.738;2023-12-20T14:03:04;9.30;99.90
54516;DHT22;40422;45.892;4.738;2023-12-20T14:05:32;9.20;99.90
54516;DHT22;40422;45.892;4.738;2023-12-20T14:07:58;9.00;99.90
54516;DHT22;40422;45.892;4.738;2023-12-20T14:10:24;9.00;99.90
54516;DHT22;40422;45.892;4.738;2023-12-20T14:12:56;8.80;99.90
54516;DHT22;40422;45.892;4.738;2023-12-20T14:15:21;8.70;99.90
54516;DHT22;40422;45.892;4.738;2023-12-20T14:17:50;8.60;99.90
54516;DHT22;40422;45.892;4.738;2023-12-20T14:20:16;8.60;99.90
54516;DHT22;40422;45.892;4.738;2023-12-20T14:22:41;8.60;99.90
54516;DHT22;40422;45.892;4.738;2023-12-20T14:25:14;8.60;99.90
54516;DHT22;40422;45.892;4.738;2023-12-20T14:27:40;8.70;99.90
54516;DHT22;40422;45.892;4.738;2023-12-20T14:30:09;8.70;99.90
54516;DHT22;40422;45.892;4.738;2023-12-20T14:32:35;8.60;99.90
54516;DHT22;40422;45.892;4.738;2023-12-20T14:35:06;8.70;99.90
54516;DHT22;40422;45.892;4.738;2023-12-20T14:37:40;8.60;99.90
54516;DHT22;40422;45.892;4.738;2023-12-20T14:40:07;8.60;99.90
54516;DHT22;40422;45.892;4.738;2023-12-20T14:42:42;8.60;99.90
54516;DHT22;40422;45.892;4.738;2023-12-20T14:45:08;8.70;99.90
54516;DHT22;40422;45.892;4.738;2023-12-20T14:47:34;8.60;99.90
54516;DHT22;40422;45.892;4.738;2023-12-20T14:49:59;8.60;99.90
54516;DHT22;40422;45.892;4.738;2023-12-20T14:52:25;8.60;99.90
54516;DHT22;40422;45.892;4.738;2023-12-20T14:54:50;8.50;99.90
54516;DHT22;40422;45.892;4.738;2023-12-20T14:57:16;8.60;99.90
54516;DHT22;40422;45.892;4.738;2023-12-20T14:59:43;8.50;99.90
54516;DHT22;40422;45.892;4.738;2023-12-20T15:02:09;8.40;99.90
54516;DHT22;40422;45.892;4.738;2023-12-20T15:04:34;8.40;99.90
54516;DHT22;40422;45.892;4.738;2023-12-20T15:07:00;8.40;99.90
54516;DHT22;40422;45.892;4.738;2023-12-20T15:09:26;8.40;99.90
54516;DHT22;40422;45.892;4.738;2023-12-20T15:11:54;8.40;99.90
54516;DHT22;40422;45.892;4.738;2023-12-20T15:14:20;8.40;99.90
54516;DHT22;40422;45.892;4.738;2023-12-20T15:16:46;8.40;99.90
54516;DHT22;40422;45.892;4.738;2023-12-20T15:19:13;8.40;99.90
54516;DHT22;40422;45.892;4.738;2023-12-20T15:21:38;8.40;99.90
54516;DHT22;40422;45.892;4.738;2023-12-20T15:24:08;8.30;99.90
54516;DHT22;40422;45.892;4.738;2023-12-20T15:26:41;8.30;99.90
54516;DHT22;40422;45.892;4.738;2023-12-20T15:29:07;8.20;99.90
54516;DHT22;40422;45.892;4.738;2023-12-20T15:31:41;8.20;99.90
54516;DHT22;40422;45.892;4.738;2023-12-20T15:34:07;8.20;99.90
54516;DHT22;40422;45.892;4.738;2023-12-20T15:36:32;8.10;99.90
54516;DHT22;40422;45.892;4.738;2023-12-20T15:38:58;8.10;99.90
54516;DHT22;40422;45.892;4.738;2023-12-20T15:41:23;8.10;99.90
54516;DHT22;40422;45.892;4.738;2023-12-20T15:43:49;8.00;99.90
54516;DHT22;40422;45.892;4.738;2023-12-20T15:46:15;8.00;99.90
54516;DHT22;40422;45.892;4.738;2023-12-20T15:48:41;8.10;99.90
54516;DHT22;40422;45.892;4.738;2023-12-20T15:51:08;8.10;99.90
54516;DHT22;40422;45.892;4.738;2023-12-20T15:53:34;8.10;99.90
54516;DHT22;40422;45.892;4.738;2023-12-20T15:56:00;8.00;99.90
54516;DHT22;40422;45.892;4.738;2023-12-20T15:58:25;8.00;99.90
54516;DHT22;40422;45.892;4.738;2023-12-20T16:00:52;7.90;99.90
54516;DHT22;40422;45.892;4.738;2023-12-20T16:03:18;8.00;99.90
54516;DHT22;40422;45.892;4.738;2023-12-20T16:05:43;8.00;99.90
54516;DHT22;40422;45.892;4.738;2023-12-20T16:08:09;7.90;99.90
54516;DHT22;40422;45.892;4.738;2023-12-20T16:10:35;7.90;99.90
54516;DHT22;40422;45.892;4.738;2023-12-20T16:13:00;7.80;99.90
54516;DHT22;40422;45.892;4.738;2023-12-20T16:15:26;7.80;99.90
54516;DHT22;40422;45.892;4.738;2023-12-20T16:17:51;7.80;99.90
54516;DHT22;40422;45.892;4.738;2023-12-20T16:20:17;7.80;99.90
54516;DHT22;40422;45.892;4.738;2023-12-20T16:22:43;7.80;99.90
54516;DHT22;40422;45.892;4.738;2023-12-20T16:25:08;7.70;99.90
54516;DHT22;40422;45.892;4.738;2023-12-20T16:27:38;7.70;99.90
54516;DHT22;40422;45.892;4.738;2023-12-20T16:30:05;7.70;99.90
54516;DHT22;40422;45.892;4.738;2023-12-20T16:32:31;7.70;99.90
54516;DHT22;40422;45.892;4.738;2023-12-20T16:34:56;7.70;99.90
54516;DHT22;40422;45.892;4.738;2023-12-20T16:37:22;7.70;99.90
54516;DHT22;40422;45.892;4.738;2023-12-20T16:39:48;7.70;99.90
54516;DHT22;40422;45.892;4.738;2023-12-20T16:42:14;7.70;99.90
54516;DHT22;40422;45.892;4.738;2023-12-20T16:44:39;7.70;99.90
54516;DHT22;40422;45.892;4.738;2023-12-20T16:47:05;7.70;99.90
54516;DHT22;40422;45.892;4.738;2023-12-20T16:49:31;7.70;99.90
54516;DHT22;40422;45.892;4.738;2023-12-20T16:51:56;7.70;99.90
54516;DHT22;40422;45.892;4.738;2023-12-20T16:54:22;7.60;99.90
54516;DHT22;40422;45.892;4.738;2023-12-20T16:56:48;7.60;99.90
54516;DHT22;40422;45.892;4.738;2023-12-20T16:59:14;7.60;99.90
54516;DHT22;40422;45.892;4.738;2023-12-20T17:01:39;7.50;99.90
54516;DHT22;40422;45.892;4.738;2023-12-20T17:04:08;7.50;99.90
54516;DHT22;40422;45.892;4.738;2023-12-20T17:06:34;7.50;99.90
54516;DHT22;40422;45.892;4.738;2023-12-20T17:09:00;7.50;99.90
54516;DHT22;40422;45.892;4.738;2023-12-20T17:11:25;7.50;99.90
54516;DHT22;40422;45.892;4.738;2023-12-20T17:13:51;7.50;99.90
54516;DHT22;40422;45.892;4.738;2023-12-20T17:16:18;7.40;99.90
54516;DHT22;40422;45.892;4.738;2023-12-20T17:18:43;7.30;99.90
54516;DHT22;40422;45.892;4.738;2023-12-20T17:21:18;7.30;99.90
54516;DHT22;40422;45.892;4.738;2023-12-20T17:23:44;7.20;99.90
54516;DHT22;40422;45.892;4.738;2023-12-20T17:26:11;7.10;99.90
54516;DHT22;40422;45.892;4.738;2023-12-20T17:28:37;7.10;99.90
54516;DHT22;40422;45.892;4.738;2023-12-20T17:31:02;7.00;99.90
54516;DHT22;40422;45.892;4.738;2023-12-20T17:33:28;7.00;99.90
54516;DHT22;40422;45.892;4.738;2023-12-20T17:35:54;7.00;99.90
54516;DHT22;40422;45.892;4.738;2023-12-20T17:38:19;7.00;99.90
54516;DHT22;40422;45.892;4.738;2023-12-20T17:40:45;7.00;99.90
54516;DHT22;40422;45.892;4.738;2023-12-20T17:43:11;7.00;99.90
54516;DHT22;40422;45.892;4.738;2023-12-20T17:45:37;7.00;99.90
54516;DHT22;40422;45.892;4.738;2023-12-20T17:48:06;7.00;99.90
54516;DHT22;40422;45.892;4.738;2023-12-20T17:50:32;7.00;99.90
54516;DHT22;40422;45.892;4.738;2023-12-20T17:52:58;7.00;99.90
54516;DHT22;40422;45.892;4.738;2023-12-20T17:55:28;6.90;99.90
54516;DHT22;40422;45.892;4.738;2023-12-20T17:57:54;6.90;99.90
54516;DHT22;40422;45.892;4.738;2023-12-20T18:00:22;7.00;99.90
54516;DHT22;40422;45.892;4.738;2023-12-20T18:02:50;6.90;99.90
54516;DHT22;40422;45.892;4.738;2023-12-20T18:05:16;6.90;99.90
54516;DHT22;40422;45.892;4.738;2023-12-20T18:07:43;6.90;99.90
54516;DHT22;40422;45.892;4.738;2023-12-20T18:10:12;6.90;99.90
54516;DHT22;40422;45.892;4.738;2023-12-20T18:12:37;6.80;99.90
54516;DHT22;40422;45.892;4.738;2023-12-20T18:15:03;6.80;99.90
54516;DHT22;40422;45.892;4.738;2023-12-20T18:17:29;6.80;99.90
54516;DHT22;40422;45.892;4.738;2023-12-20T18:19:55;6.80;99.90
54516;DHT22;40422;45.892;4.738;2023-12-20T18:22:20;6.80;99.90
54516;DHT22;40422;45.892;4.738;2023-12-20T18:24:46;6.90;99.90
54516;DHT22;40422;45.892;4.738;2023-12-20T18:27:12;6.80;99.90
54516;DHT22;40422;45.892;4.738;2023-12-20T18:29:37;6.80;99.90
54516;DHT22;40422;45.892;4.738;2023-12-20T18:32:03;6.80;99.90
54516;DHT22;40422;45.892;4.738;2023-12-20T18:34:29;6.80;99.90
54516;DHT22;40422;45.892;4.738;2023-12-20T18:36:55;6.80;99.90
54516;DHT22;40422;45.892;4.738;2023-12-20T18:39:26;6.80;99.90
54516;DHT22;40422;45.892;4.738;2023-12-20T18:41:52;6.70;99.90
54516;DHT22;40422;45.892;4.738;2023-12-20T18:44:18;6.70;99.90
54516;DHT22;40422;45.892;4.738;2023-12-20T18:46:44;6.70;99.90
54516;DHT22;40422;45.892;4.738;2023-12-20T18:49:10;6.70;99.90
54516;DHT22;40422;45.892;4.738;2023-12-20T18:51:36;6.70;99.90
54516;DHT22;40422;45.892;4.738;2023-12-20T18:54:03;6.60;99.90
54516;DHT22;40422;45.892;4.738;2023-12-20T18:56:29;6.70;99.90
54516;DHT22;40422;45.892;4.738;2023-12-20T18:58:55;6.60;99.90
54516;DHT22;40422;45.892;4.738;2023-12-20T19:01:20;6.60;99.90
54516;DHT22;40422;45.892;4.738;2023-12-20T19:03:46;6.50;99.90
54516;DHT22;40422;45.892;4.738;2023-12-20T19:06:11;6.60;99.90
54516;DHT22;40422;45.892;4.738;2023-12-20T19:08:37;6.60;99.90
54516;DHT22;40422;45.892;4.738;2023-12-20T19:11:05;6.50;99.90
54516;DHT22;40422;45.892;4.738;2023-12-20T19:13:31;6.50;99.90
54516;DHT22;40422;45.892;4.738;2023-12-20T19:16:00;6.50;99.90
54516;DHT22;40422;45.892;4.738;2023-12-20T19:18:26;6.40;99.90
54516;DHT22;40422;45.892;4.738;2023-12-20T19:20:53;6.40;99.90
54516;DHT22;40422;45.892;4.738;2023-12-20T19:23:19;6.40;99.90
54516;DHT22;40422;45.892;4.738;2023-12-20T19:25:45;6.30;99.90
54516;DHT22;40422;45.892;4.738;2023-12-20T19:28:11;6.20;99.90
54516;DHT22;40422;45.892;4.738;2023-12-20T19:30:37;6.20;99.90
54516;DHT22;40422;45.892;4.738;2023-12-20T19:33:03;6.10;99.90
54516;DHT22;40422;45.892;4.738;2023-12-20T19:35:29;6.10;99.90
54516;DHT22;40422;45.892;4.738;2023-12-20T19:37:55;6.10;99.90
54516;DHT22;40422;45.892;4.738;2023-12-20T19:40:21;6.00;99.90
54516;DHT22;40422;45.892;4.738;2023-12-20T19:42:49;6.00;99.90